Weather Data

Pearl Creek Farm: 8878 N Farm Road 75, Walnut Grove MO 65770

<== Previous Day (Sunday 27 Jan 2008) | Next Day (Tuesday 29 Jan 2008) ==>

Summary Precipitation Data For Monday 28 January 2008

ElementValueUnits
PrecipitationT
Notes(none)
SourceSpringfield-Branson National Airport (SGF)

Summary Temperature Data For Monday 28 January 2008

ElementValueUnits
High Temperature64 oF
Low Temperature42 oF
Average Temperature52 oF
High Humidity78 %
Low Humidity28 %
Average Humidity51 %
SourceSpringfield-Branson National Airport (SGF)

Detail Temperature Data For Monday 28 January 2008

Date / TimeTemp (F)RH (%)Dew Pt (F)Report Date / TimeSource
2008-01-28 01:52:00 42 53 26.0 2017-12-29 19:14:24.89625 Springfield-Branson National Airport (SGF)
2008-01-28 03:52:00 43 51 26.0 2017-12-29 19:14:24.89625 Springfield-Branson National Airport (SGF)
2008-01-28 04:52:00 44 49 26.0 2017-12-29 19:14:24.89625 Springfield-Branson National Airport (SGF)
2008-01-28 17:52:00 56 65 44.0 2017-12-29 19:14:24.89625 Springfield-Branson National Airport (SGF)
2008-01-28 18:52:00 55 72 46.0 2017-12-29 19:14:24.89625 Springfield-Branson National Airport (SGF)
2008-01-28 19:52:00 56 75 48.0 2017-12-29 19:14:24.89625 Springfield-Branson National Airport (SGF)
2008-01-28 20:52:00 55 77 48.0 2017-12-29 19:14:24.89625 Springfield-Branson National Airport (SGF)
2008-01-28 21:52:00 56 77 49.0 2017-12-29 19:14:24.89625 Springfield-Branson National Airport (SGF)
2008-01-28 22:52:00 57 78 50.0 2017-12-29 19:14:24.89625 Springfield-Branson National Airport (SGF)
2008-01-28 23:52:00 57 78 50.0 2017-12-29 19:14:24.89625 Springfield-Branson National Airport (SGF)
2008-01-28 00:52:00 42 51 25.0 2017-12-29 19:14:24.89625 Springfield-Branson National Airport (SGF)
2008-01-28 02:52:00 42 53 26.0 2017-12-29 19:14:24.89625 Springfield-Branson National Airport (SGF)
2008-01-28 05:52:00 46 42 24.0 2017-12-29 19:14:24.89625 Springfield-Branson National Airport (SGF)
2008-01-28 06:52:00 47 41 24.0 2017-12-29 19:14:24.89625 Springfield-Branson National Airport (SGF)
2008-01-28 07:52:00 48 37 23.0 2017-12-29 19:14:24.89625 Springfield-Branson National Airport (SGF)
2008-01-28 08:52:00 49 35 22.0 2017-12-29 19:14:24.89625 Springfield-Branson National Airport (SGF)
2008-01-28 09:52:00 51 31 21.0 2017-12-29 19:14:24.89625 Springfield-Branson National Airport (SGF)
2008-01-28 10:52:00 52 31 22.0 2017-12-29 19:14:24.89625 Springfield-Branson National Airport (SGF)
2008-01-28 11:52:00 54 31 24.0 2017-12-29 19:14:24.89625 Springfield-Branson National Airport (SGF)
2008-01-28 12:52:00 58 28 25.0 2017-12-29 19:14:24.89625 Springfield-Branson National Airport (SGF)
2008-01-28 13:52:00 60 28 27.0 2017-12-29 19:14:24.89625 Springfield-Branson National Airport (SGF)
2008-01-28 14:52:00 64 32 33.0 2017-12-29 19:14:24.89625 Springfield-Branson National Airport (SGF)
2008-01-28 15:52:00 62 46 41.0 2017-12-29 19:14:24.89625 Springfield-Branson National Airport (SGF)
2008-01-28 16:52:00 59 54 42.0 2017-12-29 19:14:24.89625 Springfield-Branson National Airport (SGF)

A total of 24 rows are displayed.